sensor_id;sensor_type;location;lat;lon;timestamp;temperature;humidity
13436;DHT22;6790;49.520;8.504;2022-12-29T00:02:22;10.80;99.90
13436;DHT22;6790;49.520;8.504;2022-12-29T00:04:49;10.90;99.90
13436;DHT22;6790;49.520;8.504;2022-12-29T00:07:16;10.80;99.90
13436;DHT22;6790;49.520;8.504;2022-12-29T00:09:42;10.90;99.90
13436;DHT22;6790;49.520;8.504;2022-12-29T00:12:08;10.90;99.90
13436;DHT22;6790;49.520;8.504;2022-12-29T00:14:33;11.00;99.90
13436;DHT22;6790;49.520;8.504;2022-12-29T00:17:18;11.00;99.90
13436;DHT22;6790;49.520;8.504;2022-12-29T00:19:44;11.10;99.90
13436;DHT22;6790;49.520;8.504;2022-12-29T00:22:28;11.20;99.90
13436;DHT22;6790;49.520;8.504;2022-12-29T00:25:13;11.20;99.90
13436;DHT22;6790;49.520;8.504;2022-12-29T00:27:58;11.30;99.90
13436;DHT22;6790;49.520;8.504;2022-12-29T00:31:03;11.30;99.90
13436;DHT22;6790;49.520;8.504;2022-12-29T00:33:52;11.30;99.90
13436;DHT22;6790;49.520;8.504;2022-12-29T00:36:39;11.40;99.90
13436;DHT22;6790;49.520;8.504;2022-12-29T00:39:16;11.40;99.90
13436;DHT22;6790;49.520;8.504;2022-12-29T00:42:05;11.50;99.90
13436;DHT22;6790;49.520;8.504;2022-12-29T00:45:05;11.40;99.90
13436;DHT22;6790;49.520;8.504;2022-12-29T00:47:31;11.40;99.90
13436;DHT22;6790;49.520;8.504;2022-12-29T00:49:57;11.40;99.90
13436;DHT22;6790;49.520;8.504;2022-12-29T00:52:22;11.40;99.90
13436;DHT22;6790;49.520;8.504;2022-12-29T00:54:48;11.50;99.90
13436;DHT22;6790;49.520;8.504;2022-12-29T00:57:14;11.60;99.90
13436;DHT22;6790;49.520;8.504;2022-12-29T00:59:41;11.60;99.90
13436;DHT22;6790;49.520;8.504;2022-12-29T01:02:08;11.60;99.90
13436;DHT22;6790;49.520;8.504;2022-12-29T01:04:35;11.60;99.90
13436;DHT22;6790;49.520;8.504;2022-12-29T01:07:01;11.60;99.90
13436;DHT22;6790;49.520;8.504;2022-12-29T01:09:26;11.60;99.90
13436;DHT22;6790;49.520;8.504;2022-12-29T01:12:11;11.60;99.90
13436;DHT22;6790;49.520;8.504;2022-12-29T01:14:37;11.60;99.90
13436;DHT22;6790;49.520;8.504;2022-12-29T01:17:03;11.60;99.90
13436;DHT22;6790;49.520;8.504;2022-12-29T01:19:29;11.60;99.90
13436;DHT22;6790;49.520;8.504;2022-12-29T01:21:55;11.60;99.90
13436;DHT22;6790;49.520;8.504;2022-12-29T01:24:21;11.60;99.90
13436;DHT22;6790;49.520;8.504;2022-12-29T01:26:48;11.60;99.90
13436;DHT22;6790;49.520;8.504;2022-12-29T01:29:14;11.70;99.90
13436;DHT22;6790;49.520;8.504;2022-12-29T01:31:40;11.60;99.90
13436;DHT22;6790;49.520;8.504;2022-12-29T01:34:06;11.60;99.90
13436;DHT22;6790;49.520;8.504;2022-12-29T01:36:32;11.60;99.90
13436;DHT22;6790;49.520;8.504;2022-12-29T01:38:58;11.60;99.90
13436;DHT22;6790;49.520;8.504;2022-12-29T01:41:24;11.70;99.90
13436;DHT22;6790;49.520;8.504;2022-12-29T01:43:56;11.70;99.90
13436;DHT22;6790;49.520;8.504;2022-12-29T01:46:36;11.60;99.90
13436;DHT22;6790;49.520;8.504;2022-12-29T01:52:03;11.70;99.90
13436;DHT22;6790;49.520;8.504;2022-12-29T01:54:35;11.70;99.90
13436;DHT22;6790;49.520;8.504;2022-12-29T01:57:08;11.70;99.90
13436;DHT22;6790;49.520;8.504;2022-12-29T01:59:41;11.70;99.90
13436;DHT22;6790;49.520;8.504;2022-12-29T02:02:12;11.80;99.90
13436;DHT22;6790;49.520;8.504;2022-12-29T02:04:40;11.70;99.90
13436;DHT22;6790;49.520;8.504;2022-12-29T02:07:14;11.80;99.90
13436;DHT22;6790;49.520;8.504;2022-12-29T02:09:45;11.80;99.90
13436;DHT22;6790;49.520;8.504;2022-12-29T02:12:12;11.90;99.90
13436;DHT22;6790;49.520;8.504;2022-12-29T02:14:38;11.80;99.90
13436;DHT22;6790;49.520;8.504;2022-12-29T02:17:53;11.80;99.90
13436;DHT22;6790;49.520;8.504;2022-12-29T02:32:41;11.80;99.90
13436;DHT22;6790;49.520;8.504;2022-12-29T02:41:30;11.70;99.90
13436;DHT22;6790;49.520;8.504;2022-12-29T02:47:00;11.80;99.90
13436;DHT22;6790;49.520;8.504;2022-12-29T02:49:50;11.80;99.90
13436;DHT22;6790;49.520;8.504;2022-12-29T02:52:34;11.90;99.90
13436;DHT22;6790;49.520;8.504;2022-12-29T02:55:02;11.80;99.90
13436;DHT22;6790;49.520;8.504;2022-12-29T02:57:34;11.80;99.90
13436;DHT22;6790;49.520;8.504;2022-12-29T03:00:20;11.80;99.90
13436;DHT22;6790;49.520;8.504;2022-12-29T03:06:15;11.80;99.90
13436;DHT22;6790;49.520;8.504;2022-12-29T03:09:40;11.80;99.90
13436;DHT22;6790;49.520;8.504;2022-12-29T03:12:42;11.80;99.90
13436;DHT22;6790;49.520;8.504;2022-12-29T03:15:41;11.70;99.90
13436;DHT22;6790;49.520;8.504;2022-12-29T03:18:41;11.70;99.90
13436;DHT22;6790;49.520;8.504;2022-12-29T03:24:11;11.70;99.90
13436;DHT22;6790;49.520;8.504;2022-12-29T03:26:37;11.80;99.90
13436;DHT22;6790;49.520;8.504;2022-12-29T03:29:05;11.80;99.90
13436;DHT22;6790;49.520;8.504;2022-12-29T03:31:32;11.80;99.90
13436;DHT22;6790;49.520;8.504;2022-12-29T03:33:59;11.80;99.90
13436;DHT22;6790;49.520;8.504;2022-12-29T03:36:30;11.80;99.90
13436;DHT22;6790;49.520;8.504;2022-12-29T03:39:08;11.80;99.90
13436;DHT22;6790;49.520;8.504;2022-12-29T03:41:38;11.80;99.90
13436;DHT22;6790;49.520;8.504;2022-12-29T03:44:06;11.90;99.90
13436;DHT22;6790;49.520;8.504;2022-12-29T03:46:32;11.90;99.90
13436;DHT22;6790;49.520;8.504;2022-12-29T03:48:58;11.90;99.90
13436;DHT22;6790;49.520;8.504;2022-12-29T03:51:24;11.90;99.90
13436;DHT22;6790;49.520;8.504;2022-12-29T03:53:49;11.90;99.90
13436;DHT22;6790;49.520;8.504;2022-12-29T03:56:15;11.90;99.90
13436;DHT22;6790;49.520;8.504;2022-12-29T03:58:41;11.90;99.90
13436;DHT22;6790;49.520;8.504;2022-12-29T04:01:06;11.90;99.90
13436;DHT22;6790;49.520;8.504;2022-12-29T04:03:32;11.80;99.90
13436;DHT22;6790;49.520;8.504;2022-12-29T04:05:58;11.80;99.90
13436;DHT22;6790;49.520;8.504;2022-12-29T04:08:23;11.90;99.90
13436;DHT22;6790;49.520;8.504;2022-12-29T04:10:49;11.90;99.90
13436;DHT22;6790;49.520;8.504;2022-12-29T04:13:15;12.00;99.90
13436;DHT22;6790;49.520;8.504;2022-12-29T04:15:43;12.00;99.90
13436;DHT22;6790;49.520;8.504;2022-12-29T04:18:09;12.00;99.90
13436;DHT22;6790;49.520;8.504;2022-12-29T04:20:34;11.90;99.90
13436;DHT22;6790;49.520;8.504;2022-12-29T04:23:18;11.80;99.90
13436;DHT22;6790;49.520;8.504;2022-12-29T04:25:47;11.90;99.90
13436;DHT22;6790;49.520;8.504;2022-12-29T04:28:14;11.90;99.90
13436;DHT22;6790;49.520;8.504;2022-12-29T04:30:40;11.80;99.90
13436;DHT22;6790;49.520;8.504;2022-12-29T04:33:06;11.70;99.90
13436;DHT22;6790;49.520;8.504;2022-12-29T04:35:32;11.70;99.90
13436;DHT22;6790;49.520;8.504;2022-12-29T04:37:57;11.70;99.90
13436;DHT22;6790;49.520;8.504;2022-12-29T04:40:23;11.70;99.90
13436;DHT22;6790;49.520;8.504;2022-12-29T04:42:49;11.70;99.90
13436;DHT22;6790;49.520;8.504;2022-12-29T04:45:15;11.70;99.90
13436;DHT22;6790;49.520;8.504;2022-12-29T04:47:41;11.70;99.90
13436;DHT22;6790;49.520;8.504;2022-12-29T04:50:07;11.70;99.90
13436;DHT22;6790;49.520;8.504;2022-12-29T04:52:33;11.70;99.90
13436;DHT22;6790;49.520;8.504;2022-12-29T04:54:59;11.70;99.90
13436;DHT22;6790;49.520;8.504;2022-12-29T04:57:25;11.60;99.90
13436;DHT22;6790;49.520;8.504;2022-12-29T04:59:51;11.60;99.90
13436;DHT22;6790;49.520;8.504;2022-12-29T05:02:17;11.60;99.90
13436;DHT22;6790;49.520;8.504;2022-12-29T05:04:42;11.60;99.90
13436;DHT22;6790;49.520;8.504;2022-12-29T05:07:08;11.60;99.90
13436;DHT22;6790;49.520;8.504;2022-12-29T05:09:34;11.70;99.90
13436;DHT22;6790;49.520;8.504;2022-12-29T05:12:00;11.70;99.90
13436;DHT22;6790;49.520;8.504;2022-12-29T05:14:25;11.70;99.90
13436;DHT22;6790;49.520;8.504;2022-12-29T05:16:51;11.60;99.90
13436;DHT22;6790;49.520;8.504;2022-12-29T05:19:17;11.70;99.90
13436;DHT22;6790;49.520;8.504;2022-12-29T05:21:43;11.60;99.90
13436;DHT22;6790;49.520;8.504;2022-12-29T05:24:09;11.60;99.90
13436;DHT22;6790;49.520;8.504;2022-12-29T05:26:35;11.60;99.90
13436;DHT22;6790;49.520;8.504;2022-12-29T05:29:01;11.60;99.90
13436;DHT22;6790;49.520;8.504;2022-12-29T05:31:27;11.60;99.90
13436;DHT22;6790;49.520;8.504;2022-12-29T05:33:53;11.60;99.90
13436;DHT22;6790;49.520;8.504;2022-12-29T05:36:19;11.50;99.90
13436;DHT22;6790;49.520;8.504;2022-12-29T05:38:45;11.60;99.90
13436;DHT22;6790;49.520;8.504;2022-12-29T05:41:11;11.50;99.90
13436;DHT22;6790;49.520;8.504;2022-12-29T05:43:36;11.60;99.90
13436;DHT22;6790;49.520;8.504;2022-12-29T05:46:03;11.50;99.90
13436;DHT22;6790;49.520;8.504;2022-12-29T05:48:28;11.40;99.90
13436;DHT22;6790;49.520;8.504;2022-12-29T05:50:54;11.40;99.90
13436;DHT22;6790;49.520;8.504;2022-12-29T05:53:20;11.50;99.90
13436;DHT22;6790;49.520;8.504;2022-12-29T05:55:49;11.50;99.90
13436;DHT22;6790;49.520;8.504;2022-12-29T05:58:16;11.60;99.90
13436;DHT22;6790;49.520;8.504;2022-12-29T06:00:42;11.60;99.90
13436;DHT22;6790;49.520;8.504;2022-12-29T06:03:08;11.60;99.90
13436;DHT22;6790;49.520;8.504;2022-12-29T06:05:34;11.50;99.90
13436;DHT22;6790;49.520;8.504;2022-12-29T06:07:59;11.50;99.90
13436;DHT22;6790;49.520;8.504;2022-12-29T06:10:25;11.50;99.90
13436;DHT22;6790;49.520;8.504;2022-12-29T06:12:51;11.50;99.90
13436;DHT22;6790;49.520;8.504;2022-12-29T06:15:17;11.50;99.90
13436;DHT22;6790;49.520;8.504;2022-12-29T06:17:43;11.50;99.90
13436;DHT22;6790;49.520;8.504;2022-12-29T06:20:10;11.60;99.90
13436;DHT22;6790;49.520;8.504;2022-12-29T06:22:36;11.60;99.90
13436;DHT22;6790;49.520;8.504;2022-12-29T06:25:02;11.60;99.90
13436;DHT22;6790;49.520;8.504;2022-12-29T06:27:28;11.60;99.90
13436;DHT22;6790;49.520;8.504;2022-12-29T06:29:54;11.60;99.90
13436;DHT22;6790;49.520;8.504;2022-12-29T06:32:19;11.60;99.90
13436;DHT22;6790;49.520;8.504;2022-12-29T06:34:45;11.60;99.90
13436;DHT22;6790;49.520;8.504;2022-12-29T06:37:12;11.60;99.90
13436;DHT22;6790;49.520;8.504;2022-12-29T06:39:38;11.70;99.90
13436;DHT22;6790;49.520;8.504;2022-12-29T06:42:04;11.60;99.90
13436;DHT22;6790;49.520;8.504;2022-12-29T06:44:29;11.60;99.90
13436;DHT22;6790;49.520;8.504;2022-12-29T06:46:55;11.70;99.90
13436;DHT22;6790;49.520;8.504;2022-12-29T06:49:21;11.70;99.90
13436;DHT22;6790;49.520;8.504;2022-12-29T06:51:46;11.70;99.90
13436;DHT22;6790;49.520;8.504;2022-12-29T06:54:12;11.70;99.90
13436;DHT22;6790;49.520;8.504;2022-12-29T06:56:38;11.70;99.90
13436;DHT22;6790;49.520;8.504;2022-12-29T06:59:04;11.60;99.90
13436;DHT22;6790;49.520;8.504;2022-12-29T07:01:30;11.60;99.90
13436;DHT22;6790;49.520;8.504;2022-12-29T07:03:56;11.60;99.90
13436;DHT22;6790;49.520;8.504;2022-12-29T07:06:23;11.70;99.90
13436;DHT22;6790;49.520;8.504;2022-12-29T07:08:48;11.70;99.90
13436;DHT22;6790;49.520;8.504;2022-12-29T07:11:14;11.70;99.90
13436;DHT22;6790;49.520;8.504;2022-12-29T07:13:40;11.80;99.90
13436;DHT22;6790;49.520;8.504;2022-12-29T07:16:09;11.70;99.90
13436;DHT22;6790;49.520;8.504;2022-12-29T07:18:35;11.80;99.90
13436;DHT22;6790;49.520;8.504;2022-12-29T07:21:01;11.80;99.90
13436;DHT22;6790;49.520;8.504;2022-12-29T07:23:28;11.90;99.90
13436;DHT22;6790;49.520;8.504;2022-12-29T07:26:05;11.80;99.90
13436;DHT22;6790;49.520;8.504;2022-12-29T07:28:33;11.90;99.90
13436;DHT22;6790;49.520;8.504;2022-12-29T07:31:00;12.00;99.90
13436;DHT22;6790;49.520;8.504;2022-12-29T07:33:28;11.90;99.90
13436;DHT22;6790;49.520;8.504;2022-12-29T07:35:54;11.90;99.90
13436;DHT22;6790;49.520;8.504;2022-12-29T07:38:20;12.00;99.90
13436;DHT22;6790;49.520;8.504;2022-12-29T07:40:46;11.90;99.90
13436;DHT22;6790;49.520;8.504;2022-12-29T07:43:12;12.00;99.90
13436;DHT22;6790;49.520;8.504;2022-12-29T07:45:37;11.90;99.90
13436;DHT22;6790;49.520;8.504;2022-12-29T07:48:05;12.10;99.90
13436;DHT22;6790;49.520;8.504;2022-12-29T07:50:35;12.10;99.90
13436;DHT22;6790;49.520;8.504;2022-12-29T07:53:02;12.00;99.90
13436;DHT22;6790;49.520;8.504;2022-12-29T07:55:28;12.00;99.90
13436;DHT22;6790;49.520;8.504;2022-12-29T07:57:54;12.00;99.90
13436;DHT22;6790;49.520;8.504;2022-12-29T08:00:21;12.10;99.90
13436;DHT22;6790;49.520;8.504;2022-12-29T08:02:47;12.10;99.90
13436;DHT22;6790;49.520;8.504;2022-12-29T08:05:13;12.00;99.90
13436;DHT22;6790;49.520;8.504;2022-12-29T08:07:38;12.10;99.90
13436;DHT22;6790;49.520;8.504;2022-12-29T08:10:05;12.10;99.90
13436;DHT22;6790;49.520;8.504;2022-12-29T08:12:31;12.10;99.90
13436;DHT22;6790;49.520;8.504;2022-12-29T08:14:56;12.20;99.90
13436;DHT22;6790;49.520;8.504;2022-12-29T08:17:22;12.10;99.90
13436;DHT22;6790;49.520;8.504;2022-12-29T08:19:48;12.10;99.90
13436;DHT22;6790;49.520;8.504;2022-12-29T08:22:14;12.20;99.90
13436;DHT22;6790;49.520;8.504;2022-12-29T08:24:41;12.10;99.90
13436;DHT22;6790;49.520;8.504;2022-12-29T08:27:07;12.20;99.90
13436;DHT22;6790;49.520;8.504;2022-12-29T08:29:32;12.20;99.90
13436;DHT22;6790;49.520;8.504;2022-12-29T08:31:58;12.20;99.90
13436;DHT22;6790;49.520;8.504;2022-12-29T08:34:24;12.20;99.90
13436;DHT22;6790;49.520;8.504;2022-12-29T08:36:49;12.20;99.90
13436;DHT22;6790;49.520;8.504;2022-12-29T08:39:15;12.20;99.90
13436;DHT22;6790;49.520;8.504;2022-12-29T08:41:41;12.10;99.90
13436;DHT22;6790;49.520;8.504;2022-12-29T08:44:07;12.10;99.90
13436;DHT22;6790;49.520;8.504;2022-12-29T08:46:33;12.20;99.90
13436;DHT22;6790;49.520;8.504;2022-12-29T08:48:58;12.30;99.90
13436;DHT22;6790;49.520;8.504;2022-12-29T08:51:24;12.30;99.90
13436;DHT22;6790;49.520;8.504;2022-12-29T08:53:50;12.30;99.90
13436;DHT22;6790;49.520;8.504;2022-12-29T08:56:16;12.20;99.90
13436;DHT22;6790;49.520;8.504;2022-12-29T08:58:41;12.30;99.90
13436;DHT22;6790;49.520;8.504;2022-12-29T09:01:09;12.20;99.90
13436;DHT22;6790;49.520;8.504;2022-12-29T09:03:35;12.20;99.90
13436;DHT22;6790;49.520;8.504;2022-12-29T09:06:01;12.30;99.90
13436;DHT22;6790;49.520;8.504;2022-12-29T09:08:27;12.30;99.90
13436;DHT22;6790;49.520;8.504;2022-12-29T09:10:53;12.30;99.90
13436;DHT22;6790;49.520;8.504;2022-12-29T09:13:18;12.20;99.90
13436;DHT22;6790;49.520;8.504;2022-12-29T09:15:44;12.20;99.90
13436;DHT22;6790;49.520;8.504;2022-12-29T09:18:11;12.20;99.90
13436;DHT22;6790;49.520;8.504;2022-12-29T09:20:37;12.20;99.90
13436;DHT22;6790;49.520;8.504;2022-12-29T09:23:03;12.20;99.90
13436;DHT22;6790;49.520;8.504;2022-12-29T09:25:31;12.30;99.90
13436;DHT22;6790;49.520;8.504;2022-12-29T09:27:56;12.40;99.90
13436;DHT22;6790;49.520;8.504;2022-12-29T09:30:23;12.50;99.90
13436;DHT22;6790;49.520;8.504;2022-12-29T09:32:49;12.60;99.90
13436;DHT22;6790;49.520;8.504;2022-12-29T09:35:15;12.70;99.90
13436;DHT22;6790;49.520;8.504;2022-12-29T09:37:42;12.80;99.90
13436;DHT22;6790;49.520;8.504;2022-12-29T09:40:24;12.80;99.90
13436;DHT22;6790;49.520;8.504;2022-12-29T09:45:47;12.90;99.90
13436;DHT22;6790;49.520;8.504;2022-12-29T09:48:37;12.90;99.90
13436;DHT22;6790;49.520;8.504;2022-12-29T09:51:16;12.90;99.90
13436;DHT22;6790;49.520;8.504;2022-12-29T09:54:34;12.80;99.90
13436;DHT22;6790;49.520;8.504;2022-12-29T09:57:00;12.80;99.90
13436;DHT22;6790;49.520;8.504;2022-12-29T09:59:40;12.80;99.90
13436;DHT22;6790;49.520;8.504;2022-12-29T10:02:34;12.80;99.90
13436;DHT22;6790;49.520;8.504;2022-12-29T10:05:04;12.80;99.90
13436;DHT22;6790;49.520;8.504;2022-12-29T10:07:48;12.80;99.90
13436;DHT22;6790;49.520;8.504;2022-12-29T10:12:57;12.80;99.90
13436;DHT22;6790;49.520;8.504;2022-12-29T10:15:39;12.80;99.90
13436;DHT22;6790;49.520;8.504;2022-12-29T10:23:55;12.80;99.90
13436;DHT22;6790;49.520;8.504;2022-12-29T10:26:23;12.70;99.90
13436;DHT22;6790;49.520;8.504;2022-12-29T10:29:05;12.80;99.90
13436;DHT22;6790;49.520;8.504;2022-12-29T10:31:55;12.80;99.90
13436;DHT22;6790;49.520;8.504;2022-12-29T10:34:29;12.90;99.90
13436;DHT22;6790;49.520;8.504;2022-12-29T10:37:18;12.90;99.90
13436;DHT22;6790;49.520;8.504;2022-12-29T10:39:53;12.90;99.90
13436;DHT22;6790;49.520;8.504;2022-12-29T10:44:48;12.80;99.90
13436;DHT22;6790;49.520;8.504;2022-12-29T10:47:19;12.90;99.90
13436;DHT22;6790;49.520;8.504;2022-12-29T10:49:48;13.00;99.90
13436;DHT22;6790;49.520;8.504;2022-12-29T10:52:16;13.10;99.90
13436;DHT22;6790;49.520;8.504;2022-12-29T10:55:43;13.10;99.90
13436;DHT22;6790;49.520;8.504;2022-12-29T10:58:06;13.10;99.90
13436;DHT22;6790;49.520;8.504;2022-12-29T11:00:33;13.10;99.90
13436;DHT22;6790;49.520;8.504;2022-12-29T11:06:09;13.30;99.90
13436;DHT22;6790;49.520;8.504;2022-12-29T11:08:41;13.20;99.90
13436;DHT22;6790;49.520;8.504;2022-12-29T11:11:22;13.10;99.90
13436;DHT22;6790;49.520;8.504;2022-12-29T11:16:39;13.00;99.90
13436;DHT22;6790;49.520;8.504;2022-12-29T11:19:22;13.00;99.90
13436;DHT22;6790;49.520;8.504;2022-12-29T11:21:50;13.10;99.90
13436;DHT22;6790;49.520;8.504;2022-12-29T11:24:29;13.20;99.90
13436;DHT22;6790;49.520;8.504;2022-12-29T11:27:16;13.20;99.90
13436;DHT22;6790;49.520;8.504;2022-12-29T11:29:46;13.30;99.90
13436;DHT22;6790;49.520;8.504;2022-12-29T11:32:18;13.20;99.90
13436;DHT22;6790;49.520;8.504;2022-12-29T11:34:47;13.20;99.90
13436;DHT22;6790;49.520;8.504;2022-12-29T11:37:18;13.10;99.90
13436;DHT22;6790;49.520;8.504;2022-12-29T11:40:02;13.10;99.90
13436;DHT22;6790;49.520;8.504;2022-12-29T11:42:43;13.10;99.90
13436;DHT22;6790;49.520;8.504;2022-12-29T11:45:22;13.20;99.90
13436;DHT22;6790;49.520;8.504;2022-12-29T11:47:52;13.20;99.90
13436;DHT22;6790;49.520;8.504;2022-12-29T11:50:31;13.30;99.90
13436;DHT22;6790;49.520;8.504;2022-12-29T11:53:05;13.40;99.90
13436;DHT22;6790;49.520;8.504;2022-12-29T11:56:01;13.40;99.90
13436;DHT22;6790;49.520;8.504;2022-12-29T11:58:37;13.40;99.90
13436;DHT22;6790;49.520;8.504;2022-12-29T12:01:22;13.40;99.90
13436;DHT22;6790;49.520;8.504;2022-12-29T12:04:04;13.40;99.90
13436;DHT22;6790;49.520;8.504;2022-12-29T12:06:36;13.40;99.90
13436;DHT22;6790;49.520;8.504;2022-12-29T12:09:14;13.50;99.90
13436;DHT22;6790;49.520;8.504;2022-12-29T12:11:54;13.60;99.90
13436;DHT22;6790;49.520;8.504;2022-12-29T12:14:30;13.70;99.90
13436;DHT22;6790;49.520;8.504;2022-12-29T12:17:26;13.50;99.90
13436;DHT22;6790;49.520;8.504;2022-12-29T12:20:05;13.50;99.90
13436;DHT22;6790;49.520;8.504;2022-12-29T12:22:38;13.50;99.90
13436;DHT22;6790;49.520;8.504;2022-12-29T12:25:27;13.60;99.90
13436;DHT22;6790;49.520;8.504;2022-12-29T12:28:05;13.50;99.90
13436;DHT22;6790;49.520;8.504;2022-12-29T12:30:41;13.40;99.90
13436;DHT22;6790;49.520;8.504;2022-12-29T12:33:24;13.40;99.90
13436;DHT22;6790;49.520;8.504;2022-12-29T12:36:04;13.30;99.90
13436;DHT22;6790;49.520;8.504;2022-12-29T12:50:18;13.00;99.90
13436;DHT22;6790;49.520;8.504;2022-12-29T12:52:58;12.90;99.90
13436;DHT22;6790;49.520;8.504;2022-12-29T12:58:37;12.80;99.90
13436;DHT22;6790;49.520;8.504;2022-12-29T13:01:55;12.80;99.90
13436;DHT22;6790;49.520;8.504;2022-12-29T13:05:03;12.90;99.90
13436;DHT22;6790;49.520;8.504;2022-12-29T13:19:50;12.90;99.90
13436;DHT22;6790;49.520;8.504;2022-12-29T13:30:38;12.60;99.90
13436;DHT22;6790;49.520;8.504;2022-12-29T13:33:21;12.60;99.90
13436;DHT22;6790;49.520;8.504;2022-12-29T13:36:03;12.50;99.90
13436;DHT22;6790;49.520;8.504;2022-12-29T13:38:36;12.40;99.90
13436;DHT22;6790;49.520;8.504;2022-12-29T13:41:13;12.40;99.90
13436;DHT22;6790;49.520;8.504;2022-12-29T13:43:47;12.30;99.90
13436;DHT22;6790;49.520;8.504;2022-12-29T13:46:22;12.30;99.90
13436;DHT22;6790;49.520;8.504;2022-12-29T13:48:57;12.20;99.90
13436;DHT22;6790;49.520;8.504;2022-12-29T13:51:26;12.20;99.90
13436;DHT22;6790;49.520;8.504;2022-12-29T14:00:15;11.90;99.90
13436;DHT22;6790;49.520;8.504;2022-12-29T14:02:46;11.80;99.90
13436;DHT22;6790;49.520;8.504;2022-12-29T14:05:31;11.70;99.90
13436;DHT22;6790;49.520;8.504;2022-12-29T14:08:02;11.70;99.90
13436;DHT22;6790;49.520;8.504;2022-12-29T14:10:36;11.50;99.90
13436;DHT22;6790;49.520;8.504;2022-12-29T14:13:16;11.40;99.90
13436;DHT22;6790;49.520;8.504;2022-12-29T14:15:45;11.40;99.90
13436;DHT22;6790;49.520;8.504;2022-12-29T14:18:21;11.30;99.90
13436;DHT22;6790;49.520;8.504;2022-12-29T14:21:01;11.20;99.90
13436;DHT22;6790;49.520;8.504;2022-12-29T14:23:37;11.10;99.90
13436;DHT22;6790;49.520;8.504;2022-12-29T14:28:32;10.90;99.90
13436;DHT22;6790;49.520;8.504;2022-12-29T14:36:54;10.70;99.90
13436;DHT22;6790;49.520;8.504;2022-12-29T14:44:57;10.50;99.90
13436;DHT22;6790;49.520;8.504;2022-12-29T14:47:37;10.30;99.90
13436;DHT22;6790;49.520;8.504;2022-12-29T14:50:13;10.30;99.90
13436;DHT22;6790;49.520;8.504;2022-12-29T14:52:59;10.20;99.90
13436;DHT22;6790;49.520;8.504;2022-12-29T14:55:31;10.20;99.90
13436;DHT22;6790;49.520;8.504;2022-12-29T14:58:28;10.20;99.90
13436;DHT22;6790;49.520;8.504;2022-12-29T15:00:56;10.20;99.90
13436;DHT22;6790;49.520;8.504;2022-12-29T15:03:43;10.20;99.90
13436;DHT22;6790;49.520;8.504;2022-12-29T15:06:12;10.30;99.90
13436;DHT22;6790;49.520;8.504;2022-12-29T15:09:04;10.30;99.90
13436;DHT22;6790;49.520;8.504;2022-12-29T15:17:10;10.30;99.90
13436;DHT22;6790;49.520;8.504;2022-12-29T15:19:58;10.40;99.90
13436;DHT22;6790;49.520;8.504;2022-12-29T15:22:25;10.40;99.90
13436;DHT22;6790;49.520;8.504;2022-12-29T15:24:53;10.30;99.90
13436;DHT22;6790;49.520;8.504;2022-12-29T15:27:22;10.20;99.90
13436;DHT22;6790;49.520;8.504;2022-12-29T15:29:57;10.10;99.90
13436;DHT22;6790;49.520;8.504;2022-12-29T15:32:29;9.90;99.90
13436;DHT22;6790;49.520;8.504;2022-12-29T15:37:52;9.80;99.90
13436;DHT22;6790;49.520;8.504;2022-12-29T15:40:32;9.60;99.90
13436;DHT22;6790;49.520;8.504;2022-12-29T15:46:00;9.80;99.90
13436;DHT22;6790;49.520;8.504;2022-12-29T15:48:27;9.60;99.90
13436;DHT22;6790;49.520;8.504;2022-12-29T15:50:53;9.50;99.90
13436;DHT22;6790;49.520;8.504;2022-12-29T15:53:22;9.40;99.90
13436;DHT22;6790;49.520;8.504;2022-12-29T15:55:56;9.30;99.90
13436;DHT22;6790;49.520;8.504;2022-12-29T15:58:27;9.20;99.90
13436;DHT22;6790;49.520;8.504;2022-12-29T16:00:59;9.30;99.90
13436;DHT22;6790;49.520;8.504;2022-12-29T16:03:31;9.30;99.90
13436;DHT22;6790;49.520;8.504;2022-12-29T16:06:26;9.40;99.90
13436;DHT22;6790;49.520;8.504;2022-12-29T16:08:58;9.50;99.90
13436;DHT22;6790;49.520;8.504;2022-12-29T16:11:37;9.60;99.90
13436;DHT22;6790;49.520;8.504;2022-12-29T16:14:20;9.60;99.90
13436;DHT22;6790;49.520;8.504;2022-12-29T16:16:50;9.60;99.90
13436;DHT22;6790;49.520;8.504;2022-12-29T16:19:26;9.50;99.90
13436;DHT22;6790;49.520;8.504;2022-12-29T16:21:55;9.50;99.90
13436;DHT22;6790;49.520;8.504;2022-12-29T16:24:26;9.50;99.90
13436;DHT22;6790;49.520;8.504;2022-12-29T16:27:14;9.60;99.90
13436;DHT22;6790;49.520;8.504;2022-12-29T16:29:53;9.60;99.90
13436;DHT22;6790;49.520;8.504;2022-12-29T16:32:29;9.60;99.90
13436;DHT22;6790;49.520;8.504;2022-12-29T16:35:19;9.80;99.90
13436;DHT22;6790;49.520;8.504;2022-12-29T16:41:02;9.80;99.90
13436;DHT22;6790;49.520;8.504;2022-12-29T16:43:30;9.90;99.90
13436;DHT22;6790;49.520;8.504;2022-12-29T16:48:25;9.90;99.90
13436;DHT22;6790;49.520;8.504;2022-12-29T16:51:01;9.90;99.90
13436;DHT22;6790;49.520;8.504;2022-12-29T16:53:35;9.90;99.90
13436;DHT22;6790;49.520;8.504;2022-12-29T16:56:13;9.90;99.90
13436;DHT22;6790;49.520;8.504;2022-12-29T16:58:40;9.90;99.90
13436;DHT22;6790;49.520;8.504;2022-12-29T17:01:07;9.90;99.90
13436;DHT22;6790;49.520;8.504;2022-12-29T17:03:43;9.90;99.90
13436;DHT22;6790;49.520;8.504;2022-12-29T17:06:20;9.90;99.90
13436;DHT22;6790;49.520;8.504;2022-12-29T17:08:47;9.90;99.90
13436;DHT22;6790;49.520;8.504;2022-12-29T17:11:28;9.90;99.90
13436;DHT22;6790;49.520;8.504;2022-12-29T17:16:58;9.80;99.90
13436;DHT22;6790;49.520;8.504;2022-12-29T17:19:31;9.90;99.90
13436;DHT22;6790;49.520;8.504;2022-12-29T17:21:58;10.00;99.90
13436;DHT22;6790;49.520;8.504;2022-12-29T17:24:24;10.00;99.90
13436;DHT22;6790;49.520;8.504;2022-12-29T17:26:52;10.00;99.90
13436;DHT22;6790;49.520;8.504;2022-12-29T17:29:39;10.00;99.90
13436;DHT22;6790;49.520;8.504;2022-12-29T17:32:11;10.00;99.90
13436;DHT22;6790;49.520;8.504;2022-12-29T17:34:39;10.00;99.90
13436;DHT22;6790;49.520;8.504;2022-12-29T17:39:50;10.00;99.90
13436;DHT22;6790;49.520;8.504;2022-12-29T17:42:17;9.90;99.90
13436;DHT22;6790;49.520;8.504;2022-12-29T17:44:43;10.00;99.90
13436;DHT22;6790;49.520;8.504;2022-12-29T17:47:10;9.80;99.90
13436;DHT22;6790;49.520;8.504;2022-12-29T17:49:36;9.80;99.90
13436;DHT22;6790;49.520;8.504;2022-12-29T17:52:03;9.90;99.90
13436;DHT22;6790;49.520;8.504;2022-12-29T17:54:29;9.80;99.90
13436;DHT22;6790;49.520;8.504;2022-12-29T17:56:56;9.80;99.90
13436;DHT22;6790;49.520;8.504;2022-12-29T17:59:22;9.90;99.90
13436;DHT22;6790;49.520;8.504;2022-12-29T18:01:48;9.90;99.90
13436;DHT22;6790;49.520;8.504;2022-12-29T18:04:16;9.90;99.90
13436;DHT22;6790;49.520;8.504;2022-12-29T18:06:45;9.90;99.90
13436;DHT22;6790;49.520;8.504;2022-12-29T18:09:12;9.90;99.90
13436;DHT22;6790;49.520;8.504;2022-12-29T18:11:40;9.90;99.90
13436;DHT22;6790;49.520;8.504;2022-12-29T18:14:14;9.90;99.90
13436;DHT22;6790;49.520;8.504;2022-12-29T18:16:41;9.90;99.90
13436;DHT22;6790;49.520;8.504;2022-12-29T18:19:07;9.80;99.90
13436;DHT22;6790;49.520;8.504;2022-12-29T18:21:33;9.80;99.90
13436;DHT22;6790;49.520;8.504;2022-12-29T18:24:00;9.70;99.90
13436;DHT22;6790;49.520;8.504;2022-12-29T18:26:27;9.70;99.90